Terminal Aerodrome Forecast
Issued by NWS

Home | Current Version | Previous Version | Text Only | Print | Product List | Glossary On
Versions: 1 2 3 4 5 6 7 8 9 10 11 12 13 14 15 16 17 18 19
000
FTUS46 KPDT 201800 AAA
TAFBDN
TAF AMD
KBDN 201843Z 2019/2118 23014G20KT P6SM VCSH SCT030 BKN070
     FM202100 23012G20KT P6SM -SHRA BKN040 BKN090
     FM210300 21007KT P6SM SCT100
     FM210900 21007KT P6SM SCT030 BKN070=

USA.gov is the U.S. government's official web portal to all federal, state and local government web resources and services.